Geian Maru — JD4125 — position and weather

sailwx.info

Track history (hours):
 
Tides and Currents Weather Stations Pressure Air Temp Water Temp Dewpoint Dewpoint Depression Visibility Wind Speed Wind Dir Waves Ship Positions

Geian Maru

Last reported at 2017-Nov-17 08:32 UTC. Time now 2017-Nov-18 08:36 UTC.
Position N 34°37' E 134°58'.

Length 62 m; draft 4.3 m.

Type: Cargo ship. MMSI: 431008867.

Date/timePositionNaut miles runAvg speedWind from/ knotsBaromVisibWave heightAir tempDewpointWater temp
2017-Nov-17 08:32N 34°37' E 134°58'212.6
2017-Nov-17 08:23N 34°37' E 135°01'411.7
2017-Nov-17 08:00N 34°36' E 135°06'612.1
2017-Nov-17 07:30N 34°37' E 135°13'612.7
2017-Nov-17 07:00N 34°39' E 135°21'510.2
2017-Nov-17 06:29N 34°39' E 135°27'0 0.2
2017-Nov-17 06:00N 34°39' E 135°27'0 0.0
2017-Nov-17 05:30N 34°39' E 135°27'0 0.0
2017-Nov-17 05:00N 34°39' E 135°27'0 0.0
2017-Nov-17 01:28N 34°39' E 135°27'0 0.0
2017-Nov-17 01:00N 34°39' E 135°27'0 0.0
2017-Nov-17 00:30N 34°39' E 135°27'0 0.0
2017-Nov-17 00:00N 34°39' E 135°27'0 0.0
2017-Nov-16 23:30N 34°39' E 135°27'0 0.0
2017-Nov-16 23:00N 34°39' E 135°27'0 0.7
2017-Nov-16 22:28N 34°39' E 135°27'0 0.0
2017-Nov-16 21:53N 34°39' E 135°27'0 0.0
2017-Nov-16 21:29N 34°39' E 135°27'0 0.0
2017-Nov-16 20:59N 34°39' E 135°27'0 0.0
2017-Nov-16 20:23N 34°39' E 135°27'0 0.0
2017-Nov-16 19:59N 34°39' E 135°27'0 0.0
2017-Nov-16 19:23N 34°39' E 135°27'0 0.0
2017-Nov-16 18:59N 34°39' E 135°27'0 0.0
2017-Nov-16 18:29N 34°39' E 135°27'0 0.0
2017-Nov-16 17:53N 34°39' E 135°27'0 0.0
2017-Nov-16 17:29N 34°39' E 135°27'0 0.0
2017-Nov-16 16:59N 34°39' E 135°27'0 0.0
2017-Nov-16 16:17N 34°39' E 135°27'0 0.2
2017-Nov-16 16:00N 34°39' E 135°27'3 6.3
2017-Nov-16 15:28N 34°38' E 135°23'511.1
2017-Nov-16 15:00N 34°34' E 135°19'611.5
2017-Nov-16 14:30N 34°30' E 135°14'1610.4
2017-Nov-16 12:56N 34°16' E 135°03'510.8
2017-Nov-16 12:31N 34°11' E 135°02'226 8.1
2017-Nov-15 08:41N 35°00' E 139°30'211.2
2017-Nov-15 08:29N 35°02' E 139°32'511.0
2017-Nov-15 08:00N 35°05' E 139°38'510.9
2017-Nov-15 07:31N 35°08' E 139°43'611.7
2017-Nov-15 07:01N 35°13' E 139°46'611.9
2017-Nov-15 06:29N 35°19' E 139°43'511.2
2017-Nov-15 06:01N 35°24' E 139°43'4 8.1
2017-Nov-15 05:30N 35°24' E 139°48'5 0.2
2017-Nov-14 03:53N 35°22' E 139°53'3 7.4
2017-Nov-14 03:30N 35°23' E 139°50'3 5.6
2017-Nov-14 03:01N 35°20' E 139°50'0 0.0
2017-Nov-14 02:28N 35°20' E 139°50'0 0.0
2017-Nov-14 01:58N 35°20' E 139°50'0 0.0
2017-Nov-14 01:28N 35°20' E 139°50'0 0.0
2017-Nov-14 01:00N 35°20' E 139°50'2 4.5
2017-Nov-14 00:30N 35°21' E 139°48'0 0.1
2017-Nov-13 23:58N 35°21' E 139°48'0 0.0
2017-Nov-13 23:28N 35°21' E 139°48'0 0.0
2017-Nov-13 22:58N 35°21' E 139°48'0 0.0
2017-Nov-13 22:25N 35°21' E 139°48'0 0.0
2017-Nov-13 21:55N 35°21' E 139°48'  
Track history (hours):
 
Tides and Currents Weather Stations Pressure Air Temp Water Temp Dewpoint Dewpoint Depression Visibility Wind Speed Wind Dir Waves Ship Positions

Geian Maru

Last reported at 2017-Nov-17 08:32 UTC. Time now 2017-Nov-18 08:36 UTC.
Position N 34°37' E 134°58'.

Length 62 m; draft 4.3 m.

Type: Cargo ship. MMSI: 431008867.

Date/timePositionNaut miles runAvg speedWind from/ knotsBaromVisibWave heightAir tempDewpointWater temp
2017-Nov-17 08:32N 34°37' E 134°58'212.6
2017-Nov-17 08:23N 34°37' E 135°01'411.7
2017-Nov-17 08:00N 34°36' E 135°06'612.1
2017-Nov-17 07:30N 34°37' E 135°13'612.7
2017-Nov-17 07:00N 34°39' E 135°21'510.2
2017-Nov-17 06:29N 34°39' E 135°27'0 0.2
2017-Nov-17 06:00N 34°39' E 135°27'0 0.0
2017-Nov-17 05:30N 34°39' E 135°27'0 0.0
2017-Nov-17 05:00N 34°39' E 135°27'0 0.0
2017-Nov-17 01:28N 34°39' E 135°27'0 0.0
2017-Nov-17 01:00N 34°39' E 135°27'0 0.0
2017-Nov-17 00:30N 34°39' E 135°27'0 0.0
2017-Nov-17 00:00N 34°39' E 135°27'0 0.0
2017-Nov-16 23:30N 34°39' E 135°27'0 0.0
2017-Nov-16 23:00N 34°39' E 135°27'0 0.7
2017-Nov-16 22:28N 34°39' E 135°27'0 0.0
2017-Nov-16 21:53N 34°39' E 135°27'0 0.0
2017-Nov-16 21:29N 34°39' E 135°27'0 0.0
2017-Nov-16 20:59N 34°39' E 135°27'0 0.0
2017-Nov-16 20:23N 34°39' E 135°27'0 0.0
2017-Nov-16 19:59N 34°39' E 135°27'0 0.0
2017-Nov-16 19:23N 34°39' E 135°27'0 0.0
2017-Nov-16 18:59N 34°39' E 135°27'0 0.0
2017-Nov-16 18:29N 34°39' E 135°27'0 0.0
2017-Nov-16 17:53N 34°39' E 135°27'0 0.0
2017-Nov-16 17:29N 34°39' E 135°27'0 0.0
2017-Nov-16 16:59N 34°39' E 135°27'0 0.0
2017-Nov-16 16:17N 34°39' E 135°27'0 0.2
2017-Nov-16 16:00N 34°39' E 135°27'3 6.3
2017-Nov-16 15:28N 34°38' E 135°23'511.1
2017-Nov-16 15:00N 34°34' E 135°19'611.5
2017-Nov-16 14:30N 34°30' E 135°14'1610.4
2017-Nov-16 12:56N 34°16' E 135°03'510.8
2017-Nov-16 12:31N 34°11' E 135°02'226 8.1
2017-Nov-15 08:41N 35°00' E 139°30'211.2
2017-Nov-15 08:29N 35°02' E 139°32'511.0
2017-Nov-15 08:00N 35°05' E 139°38'510.9
2017-Nov-15 07:31N 35°08' E 139°43'611.7
2017-Nov-15 07:01N 35°13' E 139°46'611.9
2017-Nov-15 06:29N 35°19' E 139°43'511.2
2017-Nov-15 06:01N 35°24' E 139°43'4 8.1
2017-Nov-15 05:30N 35°24' E 139°48'5 0.2
2017-Nov-14 03:53N 35°22' E 139°53'3 7.4
2017-Nov-14 03:30N 35°23' E 139°50'3 5.6
2017-Nov-14 03:01N 35°20' E 139°50'0 0.0
2017-Nov-14 02:28N 35°20' E 139°50'0 0.0
2017-Nov-14 01:58N 35°20' E 139°50'0 0.0
2017-Nov-14 01:28N 35°20' E 139°50'0 0.0
2017-Nov-14 01:00N 35°20' E 139°50'2 4.5
2017-Nov-14 00:30N 35°21' E 139°48'0 0.1
2017-Nov-13 23:58N 35°21' E 139°48'0 0.0
2017-Nov-13 23:28N 35°21' E 139°48'0 0.0
2017-Nov-13 22:58N 35°21' E 139°48'0 0.0
2017-Nov-13 22:25N 35°21' E 139°48'0 0.0
2017-Nov-13 21:55N 35°21' E 139°48'  

Dump ship's entire track history